createdAt,value
2022-11-05T00:00:16.238Z,25.90
2022-11-05T00:03:01.584Z,26.90
2022-11-05T00:05:49.422Z,31.73
2022-11-05T00:08:34.281Z,28.40
2022-11-05T00:11:02.454Z,26.83
2022-11-05T00:13:49.426Z,25.57
2022-11-05T00:16:37.308Z,30.13
2022-11-05T00:19:09.001Z,26.43
2022-11-05T00:21:56.746Z,27.77
2022-11-05T00:24:43.177Z,23.30
2022-11-05T00:27:11.545Z,26.07
2022-11-05T00:29:40.927Z,31.30
2022-11-05T00:32:08.901Z,28.37
2022-11-05T00:34:36.877Z,27.90
2022-11-05T00:37:05.033Z,29.63
2022-11-05T00:39:33.014Z,26.37
2022-11-05T00:42:18.322Z,25.50
2022-11-05T00:45:02.950Z,25.33
2022-11-05T00:47:49.146Z,26.57
2022-11-05T00:50:18.010Z,26.10
2022-11-05T00:52:59.367Z,24.60
2022-11-05T00:55:30.519Z,25.17
2022-11-05T00:57:58.978Z,24.20
2022-11-05T01:00:30.589Z,25.40
2022-11-05T01:03:00.280Z,23.10
2022-11-05T01:05:29.089Z,28.07
2022-11-05T01:07:57.944Z,28.00
2022-11-05T01:10:26.465Z,25.40
2022-11-05T01:12:55.046Z,28.80
2022-11-05T01:15:23.293Z,29.43
2022-11-05T01:17:53.716Z,26.53
2022-11-05T01:20:21.716Z,26.53
2022-11-05T01:22:49.625Z,24.40
2022-11-05T01:25:17.749Z,26.93
2022-11-05T01:27:46.634Z,27.03
2022-11-05T01:30:15.216Z,26.93
2022-11-05T01:32:43.237Z,25.13
2022-11-05T01:35:15.841Z,27.93
2022-11-05T01:37:44.304Z,27.07
2022-11-05T01:40:13.672Z,27.53
2022-11-05T01:42:41.849Z,26.47
2022-11-05T01:45:16.223Z,28.73
2022-11-05T01:48:01.195Z,25.27
2022-11-05T01:50:38.524Z,26.40
2022-11-05T01:53:12.213Z,27.60
2022-11-05T01:55:45.201Z,27.83
2022-11-05T01:58:16.337Z,26.13
2022-11-05T02:00:44.680Z,26.67
2022-11-05T02:03:16.172Z,27.37
2022-11-05T02:05:46.415Z,29.97
2022-11-05T02:08:22.973Z,29.77
2022-11-05T02:10:51.664Z,26.13
2022-11-05T02:13:19.608Z,23.70
2022-11-05T02:15:57.384Z,26.53
2022-11-05T02:18:37.940Z,25.97
2022-11-05T02:21:32.243Z,27.90
2022-11-05T02:24:30.170Z,28.70
2022-11-05T02:27:18.904Z,27.27
2022-11-05T02:30:08.383Z,28.53
2022-11-05T02:32:59.018Z,28.07
2022-11-05T02:35:48.972Z,29.37
2022-11-05T02:38:27.403Z,25.50
2022-11-05T02:41:05.055Z,27.60
2022-11-05T02:43:44.632Z,27.57
2022-11-05T02:46:22.332Z,26.07
2022-11-05T02:48:58.963Z,26.30
2022-11-05T02:51:35.864Z,27.53
2022-11-05T02:54:10.551Z,24.00
2022-11-05T02:56:42.461Z,30.53
2022-11-05T02:59:10.404Z,27.60
2022-11-05T03:01:40.927Z,24.57
2022-11-05T03:04:13.983Z,23.93
2022-11-05T03:06:59.988Z,24.57
2022-11-05T03:10:04.331Z,25.47
2022-11-05T03:12:39.716Z,25.13
2022-11-05T03:15:16.885Z,24.00
2022-11-05T03:17:52.586Z,24.10
2022-11-05T03:20:25.648Z,26.23
2022-11-05T03:22:57.113Z,26.80
2022-11-05T03:25:28.656Z,25.87
2022-11-05T03:28:01.662Z,25.17
2022-11-05T03:30:30.159Z,24.30
2022-11-05T03:33:03.002Z,23.40
2022-11-05T03:35:38.639Z,32.83
2022-11-05T03:38:10.738Z,26.93
2022-11-05T03:40:40.250Z,22.80
2022-11-05T03:43:10.055Z,27.17
2022-11-05T03:45:43.208Z,24.07
2022-11-05T03:48:14.485Z,25.43
2022-11-05T03:50:49.540Z,23.73
2022-11-05T03:53:20.860Z,25.17
2022-11-05T03:55:55.608Z,24.90
2022-11-05T03:58:25.006Z,24.07
2022-11-05T04:00:53.224Z,24.97
2022-11-05T04:03:21.362Z,23.87
2022-11-05T04:06:13.898Z,24.03
2022-11-05T04:08:55.905Z,23.60
2022-11-05T04:11:41.568Z,20.90
2022-11-05T04:14:09.535Z,21.73
2022-11-05T04:16:54.952Z,21.13
2022-11-05T04:19:36.872Z,23.00
2022-11-05T04:22:23.463Z,22.03
2022-11-05T04:24:51.439Z,20.87
2022-11-05T04:27:19.375Z,24.43
2022-11-05T04:30:04.684Z,22.57
2022-11-05T04:32:32.621Z,21.27
2022-11-05T04:35:00.567Z,21.47
2022-11-05T04:37:29.879Z,21.53
2022-11-05T04:39:57.895Z,22.10
2022-11-05T04:42:25.911Z,23.20
2022-11-05T04:44:53.847Z,27.77
2022-11-05T04:47:21.772Z,24.83
2022-11-05T04:49:49.757Z,25.60
2022-11-05T04:52:17.984Z,25.57
2022-11-05T04:54:47.315Z,24.73
2022-11-05T04:57:15.267Z,20.80
2022-11-05T04:59:43.223Z,24.90
2022-11-05T05:02:11.238Z,23.80
2022-11-05T05:04:39.269Z,25.30
2022-11-05T05:07:07.242Z,26.77
2022-11-05T05:09:35.175Z,24.97
2022-11-05T05:12:04.721Z,23.77
2022-11-05T05:14:32.667Z,22.13
2022-11-05T05:17:00.695Z,26.03
2022-11-05T05:19:28.741Z,28.67
2022-11-05T05:21:55.711Z,29.07
2022-11-05T05:24:25.045Z,30.33
2022-11-05T05:26:53.130Z,28.00
2022-11-05T05:29:22.428Z,29.17
2022-11-05T05:31:50.398Z,26.87
2022-11-05T05:34:18.516Z,28.07
2022-11-05T05:36:46.531Z,31.13
2022-11-05T05:39:14.577Z,26.40
2022-11-05T05:41:42.531Z,24.77
2022-11-05T05:44:10.722Z,25.33
2022-11-05T05:46:40.039Z,24.93
2022-11-05T05:49:12.457Z,25.40
2022-11-05T05:51:40.701Z,25.17
2022-11-05T05:54:09.042Z,25.93
2022-11-05T05:56:37.000Z,24.40
2022-11-05T05:59:06.732Z,24.63
2022-11-05T06:01:34.882Z,29.93
2022-11-05T06:04:04.379Z,31.03
2022-11-05T06:06:32.477Z,34.33
2022-11-05T06:09:00.470Z,31.80
2022-11-05T06:11:28.540Z,32.23
2022-11-05T06:13:56.563Z,28.50
2022-11-05T06:16:24.840Z,30.20
2022-11-05T06:18:52.914Z,30.33
2022-11-05T06:21:22.226Z,30.50
2022-11-05T06:23:50.189Z,30.40
2022-11-05T06:26:20.165Z,29.53
2022-11-05T06:28:48.180Z,30.47
2022-11-05T06:31:16.481Z,32.60
2022-11-05T06:33:44.449Z,32.43
2022-11-05T06:36:16.500Z,30.73
2022-11-05T06:38:46.034Z,34.93
2022-11-05T06:41:14.129Z,25.70
2022-11-05T06:43:42.720Z,29.43
2022-11-05T06:46:11.348Z,29.73
2022-11-05T06:48:39.452Z,32.77
2022-11-05T06:51:08.932Z,27.00
2022-11-05T06:53:37.331Z,29.07
2022-11-05T06:56:08.112Z,28.67
2022-11-05T06:58:36.288Z,27.70
2022-11-05T07:01:05.483Z,24.53
2022-11-05T07:03:33.445Z,26.50
2022-11-05T07:06:02.020Z,23.60
2022-11-05T07:08:32.929Z,23.90
2022-11-05T07:11:01.369Z,21.87
2022-11-05T07:13:30.786Z,22.07
2022-11-05T07:15:59.189Z,23.77
2022-11-05T07:18:27.203Z,24.43
2022-11-05T07:20:55.245Z,23.37
2022-11-05T07:23:23.229Z,25.00
2022-11-05T07:25:51.452Z,21.57
2022-11-05T07:28:19.481Z,24.70
2022-11-05T07:30:49.253Z,21.33
2022-11-05T07:33:17.228Z,22.83
2022-11-05T07:35:45.229Z,22.10
2022-11-05T07:38:13.225Z,19.50
2022-11-05T07:40:41.225Z,21.07
2022-11-05T07:43:10.209Z,19.77
2022-11-05T07:45:38.536Z,18.33
2022-11-05T07:48:08.308Z,17.23
2022-11-05T07:50:38.029Z,15.63
2022-11-05T07:53:07.640Z,18.00
2022-11-05T07:55:35.711Z,18.53
2022-11-05T07:58:03.975Z,15.47
2022-11-05T08:00:32.358Z,13.63
2022-11-05T08:03:07.205Z,15.07
2022-11-05T08:05:39.646Z,16.07
2022-11-05T08:08:09.079Z,14.53
2022-11-05T08:10:37.254Z,12.60
2022-11-05T08:13:06.343Z,8.97
2022-11-05T08:15:35.303Z,7.47
2022-11-05T08:18:05.415Z,10.47
2022-11-05T08:20:34.129Z,9.63
2022-11-05T08:23:03.591Z,7.43
2022-11-05T08:25:32.309Z,7.63
2022-11-05T08:28:02.871Z,9.23
2022-11-05T08:30:31.799Z,6.07
2022-11-05T08:33:01.349Z,6.73
2022-11-05T08:35:30.377Z,7.40
2022-11-05T08:37:59.300Z,8.80
2022-11-05T08:40:29.223Z,5.47
2022-11-05T08:42:59.407Z,5.80
2022-11-05T08:45:28.116Z,4.37
2022-11-05T08:48:00.590Z,4.47
2022-11-05T08:50:28.583Z,4.97
2022-11-05T08:52:56.545Z,4.07
2022-11-05T08:55:25.023Z,5.87
2022-11-05T08:57:58.166Z,8.53
2022-11-05T09:00:26.739Z,5.63
2022-11-05T09:02:54.694Z,4.07
2022-11-05T09:05:22.926Z,4.40
2022-11-05T09:07:53.171Z,4.83
2022-11-05T09:10:24.531Z,6.43
2022-11-05T09:12:52.452Z,4.00
2022-11-05T09:15:23.202Z,12.00
2022-11-05T09:17:51.297Z,11.47
2022-11-05T09:20:19.504Z,9.37
2022-11-05T09:22:48.261Z,8.07
2022-11-05T09:25:16.565Z,9.93
2022-11-05T09:27:44.910Z,6.87
2022-11-05T09:30:14.797Z,9.53
2022-11-05T09:32:44.058Z,5.27
2022-11-05T09:35:11.994Z,4.47
2022-11-05T09:37:40.231Z,7.60
2022-11-05T09:40:08.987Z,5.50
2022-11-05T09:42:41.793Z,4.20
2022-11-05T09:45:15.953Z,2.40
2022-11-05T09:47:49.178Z,4.57
2022-11-05T09:50:23.590Z,6.37
2022-11-05T09:52:51.677Z,3.73
2022-11-05T09:55:27.417Z,5.93
2022-11-05T09:57:58.591Z,6.33
2022-11-05T10:00:26.736Z,7.47
2022-11-05T10:02:59.640Z,6.07
2022-11-05T10:05:28.678Z,5.37
2022-11-05T10:08:01.301Z,4.43
2022-11-05T10:10:41.106Z,4.43
2022-11-05T10:13:20.417Z,5.40
2022-11-05T10:15:56.515Z,3.87
2022-11-05T10:18:28.913Z,4.53
2022-11-05T10:20:57.607Z,5.20
2022-11-05T10:23:28.326Z,5.63
2022-11-05T10:25:59.512Z,4.93
2022-11-05T10:28:31.250Z,9.23
2022-11-05T10:31:01.808Z,4.93
2022-11-05T10:33:36.828Z,10.73
2022-11-05T10:36:08.076Z,7.37
2022-11-05T10:38:36.156Z,6.50
2022-11-05T10:41:18.824Z,4.60
2022-11-05T10:43:50.382Z,5.73
2022-11-05T10:46:29.730Z,4.70
2022-11-05T10:49:12.262Z,4.40
2022-11-05T10:51:40.780Z,7.70
2022-11-05T10:54:18.200Z,2.03
2022-11-05T10:56:46.517Z,5.40
2022-11-05T10:59:22.240Z,8.63
2022-11-05T11:01:58.245Z,6.47
2022-11-05T11:04:34.913Z,6.17
2022-11-05T11:07:06.071Z,4.70
2022-11-05T11:09:37.412Z,6.23
2022-11-05T11:12:08.289Z,6.80
2022-11-05T11:14:37.318Z,5.03
2022-11-05T11:17:27.835Z,4.93
2022-11-05T11:20:20.912Z,5.77
2022-11-05T11:23:01.274Z,9.37
2022-11-05T11:25:40.996Z,5.70
2022-11-05T11:28:19.338Z,5.37
2022-11-05T11:30:53.155Z,5.90
2022-11-05T11:33:24.209Z,6.70
2022-11-05T11:35:53.660Z,7.30
2022-11-05T11:38:25.045Z,5.83
2022-11-05T11:41:00.956Z,9.87
2022-11-05T11:43:31.744Z,7.03
2022-11-05T11:46:05.395Z,9.17
2022-11-05T11:48:37.336Z,14.37
2022-11-05T11:51:21.019Z,11.83
2022-11-05T11:53:50.649Z,11.83
2022-11-05T11:56:20.566Z,12.57
2022-11-05T11:58:50.381Z,13.83
2022-11-05T12:01:54.217Z,10.80
2022-11-05T12:05:01.867Z,9.03
2022-11-05T12:07:46.249Z,8.23
2022-11-05T12:10:38.381Z,9.07
2022-11-05T12:13:43.452Z,10.93
2022-11-05T12:16:23.318Z,10.97
2022-11-05T12:18:58.084Z,9.83
2022-11-05T12:21:51.837Z,11.87
2022-11-05T12:25:02.927Z,18.23
2022-11-05T12:27:48.120Z,13.23
2022-11-05T12:30:18.891Z,10.10
2022-11-05T12:33:08.720Z,9.57
2022-11-05T12:35:57.723Z,13.23
2022-11-05T12:38:41.051Z,13.13
2022-11-05T12:41:20.800Z,10.80
2022-11-05T12:44:02.331Z,10.10
2022-11-05T12:46:36.264Z,10.23
2022-11-05T12:49:33.974Z,13.83
2022-11-05T12:52:18.499Z,9.47
2022-11-05T12:54:59.514Z,5.57
2022-11-05T12:57:32.942Z,9.10
2022-11-05T13:00:08.240Z,12.63
2022-11-05T13:02:42.704Z,8.60
2022-11-05T13:05:15.987Z,8.97
2022-11-05T13:07:50.510Z,10.97
2022-11-05T13:10:26.754Z,6.93
2022-11-05T13:13:02.262Z,6.53
2022-11-05T13:15:33.858Z,7.23
2022-11-05T13:18:06.543Z,8.93
2022-11-05T13:20:37.977Z,8.23
2022-11-05T13:23:13.984Z,15.40
2022-11-05T13:25:48.198Z,7.03
2022-11-05T13:28:32.726Z,11.40
2022-11-05T13:31:03.645Z,10.43
2022-11-05T13:33:35.551Z,14.43
2022-11-05T13:36:25.092Z,10.63
2022-11-05T13:39:06.968Z,13.20
2022-11-05T13:41:49.422Z,15.63
2022-11-05T13:44:51.343Z,10.90
2022-11-05T13:47:38.045Z,11.37
2022-11-05T13:50:29.194Z,13.87
2022-11-05T13:53:11.716Z,13.07
2022-11-05T13:55:57.652Z,12.87
2022-11-05T13:59:07.045Z,13.00
2022-11-05T14:01:45.258Z,14.47
2022-11-05T14:04:26.046Z,11.17
2022-11-05T14:06:54.949Z,13.27
2022-11-05T14:09:27.849Z,12.63
2022-11-05T14:12:00.265Z,16.20
2022-11-05T14:14:31.161Z,17.17
2022-11-05T14:17:16.333Z,13.47
2022-11-05T14:19:52.861Z,15.63
2022-11-05T14:22:40.417Z,16.37
2022-11-05T14:26:00.137Z,16.57
2022-11-05T14:28:46.399Z,18.93
2022-11-05T14:32:02.516Z,16.37
2022-11-05T14:34:43.434Z,16.70
2022-11-05T14:37:36.908Z,14.00
2022-11-05T14:40:33.209Z,15.63
2022-11-05T14:43:04.287Z,15.63
2022-11-05T14:45:33.981Z,17.27
2022-11-05T14:48:04.228Z,12.17
2022-11-05T14:50:39.589Z,9.73
2022-11-05T14:53:13.938Z,12.80
2022-11-05T14:55:44.141Z,15.80
2022-11-05T14:58:34.192Z,15.87
2022-11-05T15:01:04.087Z,16.60
2022-11-05T15:04:04.107Z,13.47
2022-11-05T15:06:35.852Z,12.77
2022-11-05T15:09:18.120Z,11.53
2022-11-05T15:12:09.016Z,12.67
2022-11-05T15:14:42.741Z,11.60
2022-11-05T15:17:20.129Z,14.07
2022-11-05T15:19:48.940Z,13.23
2022-11-05T15:22:31.148Z,10.50
2022-11-05T15:24:59.761Z,11.47
2022-11-05T15:27:42.772Z,10.47
2022-11-05T15:30:21.884Z,10.30
2022-11-05T15:32:49.886Z,11.87
2022-11-05T15:35:23.553Z,8.83
2022-11-05T15:38:00.356Z,12.50
2022-11-05T15:40:31.868Z,14.10
2022-11-05T15:43:10.804Z,16.30
2022-11-05T15:45:40.080Z,13.90
2022-11-05T15:48:15.584Z,14.77
2022-11-05T15:50:43.666Z,13.87
2022-11-05T15:56:22.833Z,16.53
2022-11-05T15:58:53.996Z,16.70
2022-11-05T16:01:24.499Z,21.93
2022-11-05T16:03:53.708Z,11.00
2022-11-05T16:06:22.173Z,12.70
2022-11-05T16:08:51.964Z,10.53
2022-11-05T16:11:26.724Z,15.90
2022-11-05T16:14:13.431Z,11.87
2022-11-05T16:16:41.415Z,15.27
2022-11-05T16:19:39.848Z,13.90
2022-11-05T16:22:08.817Z,12.50
2022-11-05T16:24:38.140Z,16.40
2022-11-05T16:27:07.076Z,22.00
2022-11-05T16:29:37.114Z,23.63
2022-11-05T16:32:13.622Z,23.50
2022-11-05T16:34:44.250Z,21.37
2022-11-05T16:37:14.840Z,15.30
2022-11-05T16:39:44.118Z,15.73
2022-11-05T16:42:40.268Z,18.97
2022-11-05T16:45:11.390Z,18.13
2022-11-05T16:47:39.378Z,14.20
2022-11-05T16:50:22.242Z,13.33
2022-11-05T16:52:50.663Z,18.27
2022-11-05T16:55:20.523Z,16.37
2022-11-05T16:57:52.051Z,15.90
2022-11-05T17:00:21.786Z,19.77
2022-11-05T17:02:50.240Z,18.03
2022-11-05T17:05:22.415Z,17.93
2022-11-05T17:07:50.438Z,18.07
2022-11-05T17:10:20.617Z,16.53
2022-11-05T17:12:48.976Z,17.90
2022-11-05T17:15:25.938Z,20.40
2022-11-05T17:17:55.291Z,15.83
2022-11-05T17:20:38.355Z,15.77
2022-11-05T17:23:09.259Z,25.97
2022-11-05T17:25:39.002Z,21.00
2022-11-05T17:28:07.155Z,18.10
2022-11-05T17:30:35.113Z,14.07
2022-11-05T17:33:03.556Z,14.10
2022-11-05T17:35:31.802Z,16.53
2022-11-05T17:37:59.786Z,18.67
2022-11-05T17:40:28.872Z,23.47
2022-11-05T17:42:58.190Z,17.23
2022-11-05T17:45:26.222Z,22.40
2022-11-05T17:47:54.205Z,16.93
2022-11-05T17:50:22.333Z,39.93
2022-11-05T17:52:50.379Z,59.67
2022-11-05T17:55:18.381Z,37.73
2022-11-05T17:57:48.189Z,36.60
2022-11-05T18:00:19.904Z,22.67
2022-11-05T18:02:49.443Z,19.27
2022-11-05T18:05:18.287Z,21.77
2022-11-05T18:07:47.249Z,28.63
2022-11-05T18:10:15.873Z,20.83
2022-11-05T18:12:44.729Z,25.20
2022-11-05T18:15:13.909Z,21.77
2022-11-05T18:17:44.354Z,18.80
2022-11-05T18:20:18.644Z,19.37
2022-11-05T18:22:49.502Z,21.17
2022-11-05T18:25:18.274Z,23.53
2022-11-05T18:27:46.401Z,19.43
2022-11-05T18:30:15.873Z,18.47
2022-11-05T18:32:45.845Z,18.07
2022-11-05T18:35:14.559Z,20.60
2022-11-05T18:37:43.408Z,16.80
2022-11-05T18:40:12.557Z,23.33
2022-11-05T18:42:41.046Z,21.33
2022-11-05T18:45:10.333Z,19.77
2022-11-05T18:47:38.608Z,22.50
2022-11-05T18:50:10.464Z,22.27
2022-11-05T18:52:38.462Z,22.60
2022-11-05T18:55:07.549Z,19.37
2022-11-05T18:57:35.736Z,21.40
2022-11-05T19:00:05.070Z,19.27
2022-11-05T19:02:33.250Z,25.87
2022-11-05T19:05:27.470Z,26.70
2022-11-05T19:07:50.862Z,23.43
2022-11-05T19:10:19.094Z,26.43
2022-11-05T19:12:47.058Z,22.13
2022-11-05T19:15:15.032Z,21.63
2022-11-05T19:17:43.009Z,24.90
2022-11-05T19:20:11.699Z,20.00
2022-11-05T19:22:39.685Z,18.87
2022-11-05T19:25:09.632Z,20.73
2022-11-05T19:27:38.664Z,18.57
2022-11-05T19:30:07.237Z,13.57
2022-11-05T19:32:35.214Z,13.97
2022-11-05T19:35:03.168Z,15.87
2022-11-05T19:37:31.135Z,14.40
2022-11-05T19:39:59.077Z,42.63
2022-11-05T19:42:29.156Z,17.23
2022-11-05T19:45:06.878Z,15.00
2022-11-05T19:47:44.916Z,22.73
2022-11-05T19:50:12.952Z,19.90
2022-11-05T19:52:41.200Z,18.03
2022-11-05T19:55:12.239Z,21.10
2022-11-05T19:57:41.857Z,21.10
2022-11-05T20:00:11.217Z,25.43
2022-11-05T20:02:39.269Z,22.20
2022-11-05T20:05:07.435Z,22.63
2022-11-05T20:07:35.539Z,21.50
2022-11-05T20:10:03.723Z,22.73
2022-11-05T20:12:31.931Z,17.77
2022-11-05T20:15:01.248Z,20.23
2022-11-05T20:17:29.184Z,17.67
2022-11-05T20:19:57.142Z,24.87
2022-11-05T20:22:25.443Z,22.33
2022-11-05T20:24:53.455Z,23.80
2022-11-05T20:27:21.503Z,21.60
2022-11-05T20:29:49.487Z,21.23
2022-11-05T20:32:18.747Z,21.13
2022-11-05T20:34:46.719Z,22.60
2022-11-05T20:37:14.840Z,22.37
2022-11-05T20:39:42.840Z,22.93
2022-11-05T20:42:10.758Z,27.00
2022-11-05T20:44:38.715Z,20.33
2022-11-05T20:47:07.174Z,19.00
2022-11-05T20:49:36.514Z,20.63
2022-11-05T20:52:04.486Z,26.90
2022-11-05T20:54:33.030Z,24.07
2022-11-05T20:57:00.990Z,28.03
2022-11-05T20:59:28.932Z,27.73
2022-11-05T21:01:57.042Z,24.73
2022-11-05T21:04:25.149Z,34.60
2022-11-05T21:06:54.518Z,29.53
2022-11-05T21:09:22.594Z,26.03
2022-11-05T21:12:07.149Z,28.00
2022-11-05T21:14:35.103Z,33.23
2022-11-05T21:17:03.834Z,31.30
2022-11-05T21:19:32.449Z,24.27
2022-11-05T21:22:02.210Z,23.73
2022-11-05T21:24:30.503Z,24.93
2022-11-05T21:26:58.429Z,24.03
2022-11-05T21:29:26.398Z,23.57
2022-11-05T21:31:54.893Z,39.53
2022-11-05T21:34:22.851Z,27.73
2022-11-05T21:36:51.553Z,28.40
2022-11-05T21:39:21.153Z,26.77
2022-11-05T21:41:50.993Z,29.50
2022-11-05T21:44:19.108Z,28.53
2022-11-05T21:46:47.052Z,25.33
2022-11-05T21:49:15.571Z,33.87
2022-11-05T21:52:01.251Z,66.10
2022-11-05T21:54:47.937Z,61.10
2022-11-05T21:57:34.722Z,73.43
2022-11-05T22:00:04.189Z,58.73
2022-11-05T22:02:32.661Z,47.97
2022-11-05T22:05:02.200Z,57.50
2022-11-05T22:07:33.015Z,31.30
2022-11-05T22:10:02.657Z,33.03
2022-11-05T22:12:32.169Z,76.87
2022-11-05T22:15:00.106Z,354.57
2022-11-05T22:17:28.793Z,665.77
2022-11-05T22:19:57.190Z,396.80
2022-11-05T22:22:25.159Z,213.33
2022-11-05T22:24:53.166Z,178.80
2022-11-05T22:27:22.932Z,165.47
2022-11-05T22:29:51.485Z,106.83
2022-11-05T22:32:19.823Z,92.73
2022-11-05T22:34:49.307Z,92.63
2022-11-05T22:37:17.565Z,140.43
2022-11-05T22:39:45.634Z,134.37
2022-11-05T22:42:13.686Z,160.63
2022-11-05T22:44:43.355Z,150.33
2022-11-05T22:47:11.307Z,146.57
2022-11-05T22:49:39.382Z,118.77
2022-11-05T22:52:07.604Z,93.63
2022-11-05T22:54:39.277Z,178.47
2022-11-05T22:57:07.691Z,202.00
2022-11-05T22:59:35.671Z,258.90
2022-11-05T23:02:09.494Z,208.03
2022-11-05T23:04:38.007Z,204.80
2022-11-05T23:07:27.957Z,232.77
2022-11-05T23:10:14.002Z,134.67
2022-11-05T23:12:43.650Z,93.63
2022-11-05T23:15:33.343Z,103.63
2022-11-05T23:18:19.944Z,143.63
2022-11-05T23:21:10.348Z,236.53
2022-11-05T23:23:56.120Z,234.27
2022-11-05T23:26:41.611Z,128.17
2022-11-05T23:29:09.752Z,168.80
2022-11-05T23:31:55.216Z,84.27
2022-11-05T23:34:24.492Z,83.50
2022-11-05T23:37:09.902Z,75.47
2022-11-05T23:39:42.391Z,72.57
2022-11-05T23:42:28.354Z,101.10
2022-11-05T23:45:14.856Z,117.90
2022-11-05T23:48:00.502Z,102.67
2022-11-05T23:50:35.682Z,166.40
2022-11-05T23:53:06.616Z,163.83
2022-11-05T23:55:34.570Z,154.10
2022-11-05T23:58:02.743Z,129.87
